createdAt,value
2018-12-09T00:00:24.088Z,4.41
2018-12-09T00:02:54.165Z,4.26
2018-12-09T00:05:22.454Z,4.14
2018-12-09T00:07:51.435Z,4.32
2018-12-09T00:10:20.482Z,4.52
2018-12-09T00:12:49.583Z,4.34
2018-12-09T00:15:18.538Z,4.47
2018-12-09T00:17:47.579Z,4.50
2018-12-09T00:20:16.632Z,4.72
2018-12-09T00:22:45.616Z,5.20
2018-12-09T00:25:14.965Z,5.16
2018-12-09T00:27:43.963Z,4.88
2018-12-09T00:30:12.989Z,4.94
2018-12-09T00:32:42.168Z,5.05
2018-12-09T00:35:11.150Z,4.94
2018-12-09T00:37:40.107Z,4.80
2018-12-09T00:40:09.193Z,5.41
2018-12-09T00:42:43.360Z,5.24
2018-12-09T00:45:07.354Z,4.85
2018-12-09T00:47:36.662Z,4.88
2018-12-09T00:50:05.744Z,5.15
2018-12-09T00:52:34.709Z,5.18
2018-12-09T00:55:04.072Z,5.43
2018-12-09T00:57:33.067Z,5.59
2018-12-09T01:00:02.071Z,5.66
2018-12-09T01:02:31.121Z,5.64
2018-12-09T01:05:00.207Z,5.82
2018-12-09T01:07:29.207Z,5.69
2018-12-09T01:09:58.305Z,5.48
2018-12-09T01:12:27.330Z,6.01
2018-12-09T01:14:56.323Z,6.21
2018-12-09T01:17:25.355Z,6.30
2018-12-09T01:19:54.395Z,6.28
2018-12-09T01:22:23.366Z,6.20
2018-12-09T01:24:52.352Z,6.31
2018-12-09T01:27:21.355Z,6.37
2018-12-09T01:29:50.449Z,6.42
2018-12-09T01:32:19.952Z,6.42
2018-12-09T01:34:48.847Z,6.43
2018-12-09T01:37:17.830Z,6.35
2018-12-09T01:39:46.869Z,6.36
2018-12-09T01:42:15.878Z,6.35
2018-12-09T01:44:44.858Z,5.87
2018-12-09T01:47:14.028Z,5.60
2018-12-09T01:49:43.089Z,5.67
2018-12-09T01:52:12.148Z,5.42
2018-12-09T01:54:41.168Z,4.93
2018-12-09T01:57:10.182Z,4.91
2018-12-09T01:59:39.314Z,5.48
2018-12-09T02:02:08.376Z,6.03
2018-12-09T02:04:37.418Z,6.39
2018-12-09T02:07:06.472Z,5.51
2018-12-09T02:09:35.459Z,6.19
2018-12-09T02:12:04.500Z,6.66
2018-12-09T02:14:33.518Z,6.73
2018-12-09T02:17:02.467Z,6.63
2018-12-09T02:19:31.608Z,6.88
2018-12-09T02:22:00.636Z,5.94
2018-12-09T02:24:29.675Z,5.60
2018-12-09T02:26:58.708Z,5.23
2018-12-09T02:29:27.769Z,6.11
2018-12-09T02:31:56.734Z,6.59
2018-12-09T02:34:26.368Z,6.47
2018-12-09T02:36:55.467Z,6.37
2018-12-09T02:39:24.510Z,6.47
2018-12-09T02:41:53.565Z,6.77
2018-12-09T02:44:22.750Z,6.00
2018-12-09T02:46:51.737Z,6.46
2018-12-09T02:49:20.789Z,6.35
2018-12-09T02:51:49.854Z,6.45
2018-12-09T02:54:18.799Z,5.67
2018-12-09T02:56:47.832Z,6.61
2018-12-09T02:59:16.785Z,6.14
2018-12-09T03:01:45.861Z,6.18
2018-12-09T03:04:14.892Z,6.26
2018-12-09T03:06:43.885Z,6.11
2018-12-09T03:09:12.896Z,5.78
2018-12-09T03:11:41.907Z,5.80
2018-12-09T03:14:10.895Z,5.95
2018-12-09T03:16:39.984Z,6.79
2018-12-09T03:19:08.919Z,6.98
2018-12-09T03:21:37.969Z,5.82
2018-12-09T03:24:07.032Z,5.77
2018-12-09T03:26:36.142Z,5.43
2018-12-09T03:29:05.204Z,5.11
2018-12-09T03:31:34.278Z,5.08
2018-12-09T03:34:03.326Z,5.81
2018-12-09T03:36:32.335Z,6.47
2018-12-09T03:39:01.347Z,6.36
2018-12-09T03:41:30.350Z,6.61
2018-12-09T03:43:59.334Z,6.72
2018-12-09T03:46:28.298Z,6.68
2018-12-09T03:48:57.295Z,6.17
2018-12-09T03:51:26.352Z,5.30
2018-12-09T03:53:55.400Z,4.70
2018-12-09T03:56:24.447Z,5.38
2018-12-09T03:58:53.510Z,6.04
2018-12-09T04:01:22.639Z,6.11
2018-12-09T04:03:51.724Z,6.27
2018-12-09T04:06:20.759Z,6.73
2018-12-09T04:08:49.721Z,6.15
2018-12-09T04:11:18.754Z,5.84
2018-12-09T04:13:47.815Z,5.52
2018-12-09T04:16:16.805Z,5.43
2018-12-09T04:18:45.894Z,4.95
2018-12-09T04:21:14.934Z,4.96
2018-12-09T04:23:43.988Z,4.56
2018-12-09T04:26:13.077Z,4.62
2018-12-09T04:28:42.096Z,4.54
2018-12-09T04:31:11.149Z,4.98
2018-12-09T04:33:40.152Z,4.81
2018-12-09T04:36:09.169Z,4.89
2018-12-09T04:38:38.157Z,5.06
2018-12-09T04:41:07.182Z,5.13
2018-12-09T04:43:36.166Z,5.32
2018-12-09T04:46:05.279Z,5.56
2018-12-09T04:48:34.276Z,5.69
2018-12-09T04:51:03.363Z,6.36
2018-12-09T04:53:32.385Z,6.64
2018-12-09T04:56:01.391Z,7.00
2018-12-09T04:58:30.446Z,7.21
2018-12-09T05:00:59.430Z,6.85
2018-12-09T05:03:28.479Z,6.04
2018-12-09T05:05:57.563Z,5.77
2018-12-09T05:08:26.641Z,5.28
2018-12-09T05:10:55.785Z,5.30
2018-12-09T05:13:24.813Z,5.27
2018-12-09T05:15:53.914Z,5.22
2018-12-09T05:18:22.972Z,5.33
2018-12-09T05:20:52.048Z,5.20
2018-12-09T05:23:21.089Z,5.04
2018-12-09T05:25:50.140Z,5.84
2018-12-09T05:28:19.234Z,6.60
2018-12-09T05:30:48.310Z,6.81
2018-12-09T05:33:17.345Z,6.82
2018-12-09T05:35:46.358Z,5.60
2018-12-09T05:38:15.350Z,5.24
2018-12-09T05:40:44.503Z,5.44
2018-12-09T05:43:13.577Z,5.54
2018-12-09T05:45:42.583Z,6.08
2018-12-09T05:48:11.696Z,5.90
2018-12-09T05:50:40.745Z,5.89
2018-12-09T05:53:09.916Z,7.02
2018-12-09T05:55:38.988Z,6.61
2018-12-09T05:58:08.015Z,7.01
2018-12-09T06:00:37.066Z,6.72
2018-12-09T06:03:06.086Z,6.87
2018-12-09T06:05:35.178Z,6.38
2018-12-09T06:08:04.258Z,6.53
2018-12-09T06:10:33.373Z,5.79
2018-12-09T06:13:02.386Z,5.54
2018-12-09T06:15:31.382Z,5.14
2018-12-09T06:18:00.406Z,5.11
2018-12-09T06:20:29.386Z,5.04
2018-12-09T06:22:58.500Z,5.07
2018-12-09T06:25:27.557Z,4.89
2018-12-09T06:27:56.551Z,5.76
2018-12-09T06:30:25.649Z,6.40
2018-12-09T06:32:54.922Z,6.77
2018-12-09T06:35:23.947Z,7.01
2018-12-09T06:37:53.021Z,7.18
2018-12-09T06:40:22.144Z,6.79
2018-12-09T06:42:51.226Z,7.42
2018-12-09T06:45:20.255Z,6.53
2018-12-09T06:47:49.274Z,6.07
2018-12-09T06:50:18.609Z,5.58
2018-12-09T06:52:47.607Z,5.76
2018-12-09T06:55:16.650Z,6.43
2018-12-09T06:57:45.762Z,6.47
2018-12-09T07:00:14.752Z,6.15
2018-12-09T07:02:43.805Z,6.29
2018-12-09T07:05:12.952Z,6.72
2018-12-09T07:07:41.975Z,7.33
2018-12-09T07:10:11.116Z,7.55
2018-12-09T07:12:40.440Z,7.41
2018-12-09T07:15:09.593Z,7.53
2018-12-09T07:17:38.669Z,7.47
2018-12-09T07:20:08.889Z,7.42
2018-12-09T07:22:37.962Z,7.87
2018-12-09T07:25:07.183Z,7.41
2018-12-09T07:27:36.430Z,7.50
2018-12-09T07:30:06.212Z,7.36
2018-12-09T07:32:35.247Z,7.33
2018-12-09T07:35:04.432Z,7.14
2018-12-09T07:37:33.548Z,7.01
2018-12-09T07:40:02.577Z,7.54
2018-12-09T07:42:31.646Z,7.40
2018-12-09T07:45:00.599Z,7.22
2018-12-09T07:47:29.719Z,6.67
2018-12-09T07:49:59.101Z,7.03
2018-12-09T07:52:28.184Z,6.70
2018-12-09T07:54:57.356Z,6.30
2018-12-09T07:57:27.068Z,6.53
2018-12-09T07:59:56.102Z,6.65
2018-12-09T08:02:25.174Z,6.84
2018-12-09T08:04:54.246Z,6.98
2018-12-09T08:07:23.259Z,7.27
2018-12-09T08:09:52.247Z,7.24
2018-12-09T08:12:21.319Z,7.44
2018-12-09T08:14:50.487Z,7.28
2018-12-09T08:17:19.438Z,7.31
2018-12-09T08:19:48.436Z,7.09
2018-12-09T08:22:17.456Z,7.19
2018-12-09T08:24:46.429Z,7.14
2018-12-09T08:27:15.441Z,7.10
2018-12-09T08:29:44.639Z,7.11
2018-12-09T08:32:13.758Z,7.37
2018-12-09T08:34:42.803Z,7.34
2018-12-09T08:37:16.463Z,7.24
2018-12-09T08:39:45.560Z,7.48
2018-12-09T08:42:14.558Z,7.90
2018-12-09T08:44:43.607Z,7.87
2018-12-09T08:47:12.707Z,8.12
2018-12-09T08:49:41.787Z,7.92
2018-12-09T08:52:10.849Z,7.89
2018-12-09T08:54:39.857Z,8.14
2018-12-09T08:57:08.889Z,8.29
2018-12-09T08:59:37.861Z,8.17
2018-12-09T09:02:07.010Z,8.06
2018-12-09T09:04:35.975Z,8.20
2018-12-09T09:07:05.019Z,8.03
2018-12-09T09:09:34.142Z,7.96
2018-12-09T09:12:03.199Z,7.93
2018-12-09T09:14:32.418Z,8.12
2018-12-09T09:17:01.744Z,8.31
2018-12-09T09:19:30.739Z,7.86
2018-12-09T09:21:59.737Z,7.84
2018-12-09T09:24:28.777Z,8.09
2018-12-09T09:26:57.788Z,8.06
2018-12-09T09:29:26.836Z,7.94
2018-12-09T09:31:55.989Z,7.93
2018-12-09T09:34:25.062Z,8.13
2018-12-09T09:36:54.148Z,8.35
2018-12-09T09:39:23.247Z,8.57
2018-12-09T09:41:52.307Z,8.85
2018-12-09T09:44:21.399Z,8.45
2018-12-09T09:46:50.479Z,8.26
2018-12-09T09:49:19.523Z,8.09
2018-12-09T09:51:48.629Z,8.03
2018-12-09T09:54:17.976Z,8.39
2018-12-09T09:56:46.973Z,8.89
2018-12-09T09:59:15.956Z,9.24
2018-12-09T10:01:45.049Z,9.09
2018-12-09T10:04:14.052Z,9.23
2018-12-09T10:06:43.129Z,9.65
2018-12-09T10:09:12.207Z,9.41
2018-12-09T10:11:41.276Z,9.20
2018-12-09T10:14:10.341Z,9.25
2018-12-09T10:16:39.491Z,9.04
2018-12-09T10:19:08.592Z,8.73
2018-12-09T10:21:37.595Z,8.92
2018-12-09T10:24:06.784Z,9.00
2018-12-09T10:26:36.623Z,8.84
2018-12-09T10:29:04.892Z,8.55
2018-12-09T10:31:34.259Z,8.70
2018-12-09T10:34:03.227Z,8.74
2018-12-09T10:36:32.202Z,8.78
2018-12-09T10:39:02.862Z,8.72
2018-12-09T10:41:31.880Z,8.79
2018-12-09T10:44:00.894Z,8.71
2018-12-09T10:46:29.929Z,8.96
2018-12-09T10:48:58.902Z,8.93
2018-12-09T10:51:27.922Z,9.15
2018-12-09T10:53:56.995Z,9.37
2018-12-09T10:56:26.049Z,9.75
2018-12-09T10:58:55.519Z,10.01
2018-12-09T11:01:27.493Z,9.83
2018-12-09T11:03:56.589Z,9.78
2018-12-09T11:06:25.635Z,9.51
2018-12-09T11:08:54.885Z,9.80
2018-12-09T11:11:23.838Z,9.66
2018-12-09T11:13:58.067Z,9.89
2018-12-09T11:16:21.919Z,9.92
2018-12-09T11:18:50.897Z,9.87
2018-12-09T11:21:19.894Z,9.60
2018-12-09T11:23:48.989Z,9.88
2018-12-09T11:26:17.995Z,9.94
2018-12-09T11:28:47.056Z,10.13
2018-12-09T11:31:24.684Z,10.35
2018-12-09T11:33:54.762Z,10.00
2018-12-09T11:36:23.820Z,9.76
2018-12-09T11:38:53.066Z,9.78
2018-12-09T11:41:22.206Z,10.15
2018-12-09T11:43:51.179Z,10.22
2018-12-09T11:46:20.552Z,10.28
2018-12-09T11:48:49.573Z,10.12
2018-12-09T11:51:18.560Z,9.80
2018-12-09T11:53:47.619Z,10.08
2018-12-09T11:56:16.627Z,9.87
2018-12-09T11:58:45.654Z,9.96
2018-12-09T12:01:14.743Z,9.94
2018-12-09T12:03:43.801Z,9.99
2018-12-09T12:06:12.903Z,9.91
2018-12-09T12:08:41.982Z,10.03
2018-12-09T12:11:10.994Z,9.99
2018-12-09T12:13:40.081Z,9.92
2018-12-09T12:16:09.183Z,10.08
2018-12-09T12:18:38.211Z,10.15
2018-12-09T12:21:07.199Z,10.37
2018-12-09T12:23:36.230Z,10.36
2018-12-09T12:26:05.463Z,10.57
2018-12-09T12:28:34.579Z,10.47
2018-12-09T12:31:03.676Z,10.51
2018-12-09T12:33:32.654Z,10.50
2018-12-09T12:36:01.668Z,10.79
2018-12-09T12:38:30.761Z,10.59
2018-12-09T12:40:59.734Z,10.69
2018-12-09T12:43:28.840Z,10.46
2018-12-09T12:45:58.056Z,10.68
2018-12-09T12:48:27.144Z,10.52
2018-12-09T12:50:56.225Z,10.42
2018-12-09T12:53:25.351Z,10.25
2018-12-09T12:55:54.350Z,10.46
2018-12-09T12:58:23.488Z,10.43
2018-12-09T13:00:52.629Z,10.29
2018-12-09T13:03:21.767Z,10.28
2018-12-09T13:05:50.965Z,10.51
2018-12-09T13:08:20.072Z,10.96
2018-12-09T13:10:49.065Z,10.64
2018-12-09T13:13:18.092Z,10.87
2018-12-09T13:15:47.116Z,10.67
2018-12-09T13:18:16.145Z,10.94
2018-12-09T13:20:45.225Z,10.74
2018-12-09T13:23:14.339Z,10.48
2018-12-09T13:25:43.458Z,10.44
2018-12-09T13:28:12.604Z,10.80
2018-12-09T13:30:41.934Z,11.36
2018-12-09T13:33:11.048Z,10.87
2018-12-09T13:35:40.039Z,10.97
2018-12-09T13:38:09.081Z,10.69
2018-12-09T13:40:38.143Z,11.30
2018-12-09T13:43:07.152Z,11.29
2018-12-09T13:45:36.195Z,11.37
2018-12-09T13:48:05.780Z,11.55
2018-12-09T13:50:34.854Z,11.19
2018-12-09T13:53:03.864Z,11.01
2018-12-09T13:55:32.910Z,11.16
2018-12-09T13:58:01.951Z,11.34
2018-12-09T14:00:31.495Z,11.51
2018-12-09T14:03:00.509Z,11.52
2018-12-09T14:05:29.544Z,12.01
2018-12-09T14:07:58.622Z,12.09
2018-12-09T14:10:27.704Z,12.32
2018-12-09T14:12:56.723Z,12.75
2018-12-09T14:15:25.802Z,12.53
2018-12-09T14:17:55.334Z,12.29
2018-12-09T14:20:24.374Z,12.28
2018-12-09T14:22:53.436Z,12.15
2018-12-09T14:25:22.432Z,11.97
2018-12-09T14:27:51.441Z,11.80
2018-12-09T14:30:20.942Z,11.73
2018-12-09T14:32:50.164Z,11.63
2018-12-09T14:35:19.265Z,11.33
2018-12-09T14:37:48.334Z,11.00
2018-12-09T14:40:18.098Z,10.90
2018-12-09T14:42:47.125Z,10.88
2018-12-09T14:45:16.184Z,10.42
2018-12-09T14:47:45.272Z,10.78
2018-12-09T14:50:14.333Z,10.68
2018-12-09T14:52:43.379Z,11.02
2018-12-09T14:55:12.439Z,10.88
2018-12-09T14:57:41.436Z,10.69
2018-12-09T15:00:11.519Z,10.48
2018-12-09T15:02:40.509Z,10.47
2018-12-09T15:05:09.582Z,10.18
2018-12-09T15:07:38.585Z,10.36
2018-12-09T15:10:08.983Z,10.59
2018-12-09T15:12:36.960Z,10.77
2018-12-09T15:15:06.299Z,10.93
2018-12-09T15:17:35.319Z,11.12
2018-12-09T15:20:04.611Z,11.04
2018-12-09T15:22:33.675Z,10.78
2018-12-09T15:25:02.709Z,10.40
2018-12-09T15:27:31.804Z,10.29
2018-12-09T15:30:00.854Z,10.16
2018-12-09T15:32:29.878Z,10.26
2018-12-09T15:34:58.984Z,9.94
2018-12-09T15:37:28.076Z,10.06
2018-12-09T15:39:57.068Z,9.86
2018-12-09T15:42:26.086Z,9.71
2018-12-09T15:44:55.118Z,9.80
2018-12-09T15:47:24.156Z,9.76
2018-12-09T15:49:53.180Z,9.36
2018-12-09T15:52:22.203Z,9.25
2018-12-09T15:54:51.207Z,9.52
2018-12-09T15:57:20.175Z,9.54
2018-12-09T15:59:49.204Z,9.60
2018-12-09T16:02:18.276Z,9.39
2018-12-09T16:04:47.323Z,9.41
2018-12-09T16:07:16.341Z,9.29
2018-12-09T16:09:45.371Z,9.30
2018-12-09T16:12:14.407Z,9.31
2018-12-09T16:14:43.620Z,9.24
2018-12-09T16:17:12.617Z,9.20
2018-12-09T16:19:42.303Z,9.06
2018-12-09T16:22:13.840Z,9.02
2018-12-09T16:24:43.003Z,8.91
2018-12-09T16:27:12.095Z,9.05
2018-12-09T16:29:41.147Z,9.00
2018-12-09T16:32:10.118Z,9.00
2018-12-09T16:34:39.152Z,8.96
2018-12-09T16:37:08.617Z,9.00
2018-12-09T16:39:37.584Z,9.94
2018-12-09T16:42:06.611Z,9.42
2018-12-09T16:44:35.643Z,9.26
2018-12-09T16:47:04.768Z,10.16
2018-12-09T16:49:33.734Z,9.52
2018-12-09T16:52:02.812Z,9.09
2018-12-09T16:54:32.002Z,8.89
2018-12-09T16:57:01.102Z,9.08
2018-12-09T16:59:30.746Z,8.43
2018-12-09T17:02:01.531Z,8.34
2018-12-09T17:04:31.543Z,8.08
2018-12-09T17:07:00.840Z,7.92
2018-12-09T17:09:31.147Z,7.91
2018-12-09T17:12:00.429Z,7.95
2018-12-09T17:14:32.123Z,7.92
2018-12-09T17:17:00.700Z,8.32
2018-12-09T17:19:30.007Z,8.06
2018-12-09T17:21:59.137Z,8.04
2018-12-09T17:24:28.640Z,7.96
2018-12-09T17:26:57.873Z,7.98
2018-12-09T17:29:28.438Z,8.55
2018-12-09T17:31:58.504Z,8.81
2018-12-09T17:34:28.310Z,8.91
2018-12-09T17:36:58.433Z,9.02
2018-12-09T17:39:28.432Z,8.70
2018-12-09T17:41:58.423Z,8.62
2018-12-09T17:44:28.167Z,8.83
2018-12-09T17:47:00.062Z,8.61
2018-12-09T17:49:30.172Z,8.53
2018-12-09T17:52:00.271Z,8.16
2018-12-09T17:54:30.287Z,8.03
2018-12-09T17:57:00.559Z,7.96
2018-12-09T17:59:32.749Z,8.13
2018-12-09T18:02:02.749Z,7.96
2018-12-09T18:04:33.736Z,7.97
2018-12-09T18:07:04.211Z,7.76
2018-12-09T18:09:33.813Z,7.73
2018-12-09T18:12:04.307Z,8.39
2018-12-09T18:14:34.466Z,8.56
2018-12-09T18:17:03.587Z,8.70
2018-12-09T18:19:34.842Z,8.25
2018-12-09T18:22:03.968Z,8.10
2018-12-09T18:24:34.086Z,8.12
2018-12-09T18:27:03.729Z,7.93
2018-12-09T18:29:33.112Z,7.59
2018-12-09T18:32:04.664Z,7.50
2018-12-09T18:34:41.091Z,7.27
2018-12-09T18:37:11.538Z,7.16
2018-12-09T18:39:40.898Z,7.38
2018-12-09T18:42:10.139Z,8.29
2018-12-09T18:44:40.675Z,8.02
2018-12-09T18:47:10.254Z,7.75
2018-12-09T18:49:40.254Z,7.77
2018-12-09T18:52:11.707Z,7.80
2018-12-09T18:54:44.264Z,7.96
2018-12-09T18:57:16.593Z,7.95
2018-12-09T18:59:47.201Z,7.85
2018-12-09T19:02:16.478Z,7.95
2018-12-09T19:04:45.571Z,8.37
2018-12-09T19:07:15.647Z,7.73
2018-12-09T19:09:45.307Z,8.56
2018-12-09T19:12:14.748Z,8.64
2018-12-09T19:14:44.691Z,7.73
2018-12-09T19:17:14.079Z,8.01
2018-12-09T19:19:43.291Z,8.12
2018-12-09T19:22:12.484Z,8.27
2018-12-09T19:24:41.747Z,7.78
2018-12-09T19:27:11.109Z,7.50
2018-12-09T19:29:40.484Z,6.94
2018-12-09T19:32:09.862Z,6.42
2018-12-09T19:34:38.915Z,6.64
2018-12-09T19:37:08.484Z,7.02
2018-12-09T19:39:37.837Z,6.51
2018-12-09T19:42:07.033Z,6.56
2018-12-09T19:44:36.582Z,6.19
2018-12-09T19:47:07.482Z,5.77
2018-12-09T19:49:36.533Z,5.64
2018-12-09T19:52:06.185Z,5.51
2018-12-09T19:54:35.607Z,5.42
2018-12-09T19:57:04.684Z,5.42
2018-12-09T19:59:33.712Z,5.24
2018-12-09T20:02:02.934Z,5.45
2018-12-09T20:04:31.947Z,5.30
2018-12-09T20:07:01.016Z,5.32
2018-12-09T20:09:30.139Z,5.40
2018-12-09T20:11:59.196Z,5.31
2018-12-09T20:14:31.710Z,5.17
2018-12-09T20:17:00.888Z,5.28
2018-12-09T20:19:30.086Z,5.19
2018-12-09T20:21:59.227Z,5.33
2018-12-09T20:24:28.520Z,5.28
2018-12-09T20:26:57.741Z,4.54
2018-12-09T20:29:26.956Z,5.55
2018-12-09T20:31:56.028Z,5.43
2018-12-09T20:34:25.071Z,5.25
2018-12-09T20:36:54.120Z,5.13
2018-12-09T20:39:23.158Z,5.14
2018-12-09T20:41:52.236Z,5.25
2018-12-09T20:44:21.478Z,5.28
2018-12-09T20:46:50.650Z,5.43
2018-12-09T20:49:19.719Z,5.55
2018-12-09T20:51:48.882Z,5.63
2018-12-09T20:54:17.933Z,5.54
2018-12-09T20:56:46.969Z,5.68
2018-12-09T20:59:16.079Z,5.98
2018-12-09T21:01:46.999Z,6.01
2018-12-09T21:04:16.210Z,5.87
2018-12-09T21:06:45.351Z,5.76
2018-12-09T21:09:14.471Z,5.69
2018-12-09T21:11:43.520Z,5.48
2018-12-09T21:14:12.660Z,5.54
2018-12-09T21:16:43.247Z,5.70
2018-12-09T21:19:12.505Z,6.01
2018-12-09T21:21:45.070Z,5.79
2018-12-09T21:24:25.765Z,5.90
2018-12-09T21:26:54.907Z,5.75
2018-12-09T21:29:28.134Z,6.01
2018-12-09T21:32:01.021Z,5.94
2018-12-09T21:34:36.045Z,6.10
2018-12-09T21:37:11.072Z,6.97
2018-12-09T21:39:40.708Z,6.60
2018-12-09T21:42:09.781Z,6.40
2018-12-09T21:44:39.027Z,6.40
2018-12-09T21:47:08.312Z,6.16
2018-12-09T21:49:37.344Z,6.05
2018-12-09T21:52:06.416Z,6.03
2018-12-09T21:54:35.485Z,5.96
2018-12-09T21:57:04.533Z,5.81
2018-12-09T21:59:33.556Z,5.80
2018-12-09T22:02:02.867Z,6.47
2018-12-09T22:04:32.029Z,6.82
2018-12-09T22:07:01.311Z,5.91
2018-12-09T22:09:30.317Z,5.89
2018-12-09T22:11:59.411Z,5.52
2018-12-09T22:14:29.382Z,5.35
2018-12-09T22:16:58.400Z,5.54
2018-12-09T22:19:27.439Z,5.42
2018-12-09T22:21:56.528Z,5.51
2018-12-09T22:24:25.500Z,5.51
2018-12-09T22:26:54.570Z,5.39
2018-12-09T22:29:23.590Z,5.46
2018-12-09T22:31:52.556Z,5.26
2018-12-09T22:34:21.764Z,5.20
2018-12-09T22:36:50.820Z,5.42
2018-12-09T22:39:19.815Z,5.37
2018-12-09T22:41:48.835Z,5.57
2018-12-09T22:44:17.909Z,5.47
2018-12-09T22:46:46.976Z,5.61
2018-12-09T22:49:15.986Z,5.81
2018-12-09T22:51:45.045Z,5.92
2018-12-09T22:54:14.049Z,6.32
2018-12-09T22:56:43.126Z,6.56
2018-12-09T22:59:12.324Z,6.70
2018-12-09T23:01:45.384Z,6.50
2018-12-09T23:04:14.488Z,6.49
2018-12-09T23:06:43.539Z,6.61
2018-12-09T23:09:12.516Z,6.63
2018-12-09T23:11:41.534Z,5.68
2018-12-09T23:14:10.588Z,5.65
2018-12-09T23:16:39.591Z,6.40
2018-12-09T23:19:08.884Z,6.67
2018-12-09T23:21:37.891Z,6.42
2018-12-09T23:24:06.940Z,6.62
2018-12-09T23:26:35.967Z,6.64
2018-12-09T23:29:04.975Z,6.26
2018-12-09T23:31:33.945Z,6.00
2018-12-09T23:34:03.023Z,5.83
2018-12-09T23:36:32.062Z,5.74
2018-12-09T23:39:01.134Z,5.61
2018-12-09T23:41:30.222Z,5.52
2018-12-09T23:43:59.218Z,5.46
2018-12-09T23:46:28.211Z,5.50
2018-12-09T23:48:57.267Z,5.34
2018-12-09T23:51:26.238Z,5.38
2018-12-09T23:53:55.319Z,5.28
2018-12-09T23:56:24.772Z,5.18
2018-12-09T23:58:53.767Z,5.22
